메인 페이지
METAR-TAF:

METAR-TAF

공항 :

앤토니오 B. 원 팻 국제공항

하갓냐, 괌, 미국

위도: 13-29N, 경도: 144-48E, 고도: 91m

현재 날씨관측

예보는 40분 전, 20:15시(UTC)에 발표되었습니다.
남서10kt
온도 26°C
습도 100%
기압 1007 hPa
시정: 11.3km
고도 1800ft 상공 구름 보통
고도 6000ft 상공 구름 보통
고도 9000ft 상공 구름 많음
약한비

METAR: PGUM 202015Z 23010KT 7SM -RA SCT018 SCT060 BKN090 26/26 A2973 RMK AO2 RAB07 P0001 T02560256

시각: 06:55 (20:55 UTC)

예보

예보는 3 시간 10분 전, 17:45시(UTC)에 발표되었습니다.
예보 대상 시간: 20일 18시부터 21일 24시까지 (UTC)
서남서13kt, 순간 최대 풍속 22kt
시정: 9.7km
고도 1500ft 상공 구름 보통
고도 4000ft 상공 구름 많음
고도 10000ft 상공 흐림
약한비
일시적
20일 18시부터 20일 22시까지 (UTC)
18kt, 순간 최대 풍속 30kt
시정: 3.2km
고도 1000ft 상공 구름 보통
고도 2000ft 상공 구름 많음
고도 2500ft 상공 흐림
강한소나기
20일 2300시부터 (UTC)
남남서15kt, 순간 최대 풍속 25kt
시정: 10km
고도 1200ft 상공 구름 보통
고도 3000ft 상공 구름 보통
고도 5000ft 상공 흐림
시계 내 소나기

TAF: PGUM 201745Z 2018/2124 24013G22KT 6SM -RA SCT015 BKN040 OVC100 TEMPO 2018/2022 26018G30KT 2SM +SHRA SCT010 BKN020 OVC025 FM202300 20015G25KT P6SM VCSH SCT012 SCT030 OVC050

4,000개 이상의 공항 관측 자료 및 예보 (METAR 및 TAF 보고).

지도상에서 검색 가능한 기상관측소가 노란 점과 빨간 점으로 표시되어 있습니다.

기상관측소 명을 보려면 표시 위로 마우스를 이동하세요.

날씨 관측과 예보를 보려면 클릭하세요.

지도 변경 : 확대하려면 엑스 표시가 있는 녹색 버튼, 축소하려면 빼기 표시가 있는 녹색 버튼, 다음 페이지의 지도를 보려면 녹색 화살표를 클릭하세요.


METAR-TAF: